Terminal Aerodrome Forecast
Issued by NWS

Home | Current Version | Previous Version | Text Only | Print | Product List | Glossary On
Versions: 1 2 3 4 5 6 7 8 9 10 11 12 13 14 15 16
000
FTAK31 PANC 231138
TAFATK
TAF
PATK 231138Z 2312/2412 19007KT P6SM VCSH SCT040 BKN050 OVC100
     FM240000 20007KT P6SM SCT080 BKN200=

USA.gov is the U.S. government's official web portal to all federal, state and local government web resources and services.